Time;durP1;ratioP1;P1;durP2;ratioP2;P2;SDS_P1;SDS_P2;PMS_P1;PMS_P2;Temp;Humidity;BMP_temperature;BMP_pressure;BME280_temperature;BME280_humidity;BME280_pressure;Samples;Min_cycle;Max_cycle;Signal;HPM_P1;HPM_P2
2021/07/24 00:01:05;;;;;;;;;14.25;10.00;;;;;;;;5041584;28;47220;-80
2021/07/24 00:03:31;;;;;;;;;15.25;13.25;;;;;;;;5059127;28;48218;-81
2021/07/24 00:05:56;;;;;;;;;12.00;11.75;;;;;;;;5041223;28;47530;-79
2021/07/24 00:08:21;;;;;;;;;11.50;11.50;;;;;;;;5041165;28;46968;-79
2021/07/24 00:10:47;;;;;;;;;15.00;13.25;;;;;;;;5041359;28;47235;-78
2021/07/24 00:13:12;;;;;;;;;14.75;11.25;;;;;;;;5058791;28;47158;-78
2021/07/24 00:15:37;;;;;;;;;13.50;12.00;;;;;;;;5059474;28;47027;-78
2021/07/24 00:18:03;;;;;;;;;14.25;12.75;;;;;;;;5040732;28;47069;-78
2021/07/24 00:20:28;;;;;;;;;12.75;11.50;;;;;;;;5060487;28;46996;-79
2021/07/24 00:22:53;;;;;;;;;14.00;12.25;;;;;;;;5064772;28;46797;-79
2021/07/24 00:25:19;;;;;;;;;17.75;16.50;;;;;;;;5040769;28;46923;-79
2021/07/24 00:27:44;;;;;;;;;14.00;13.25;;;;;;;;5058736;28;46914;-79
2021/07/24 00:30:09;;;;;;;;;12.25;10.75;;;;;;;;5059211;28;46745;-78
2021/07/24 00:32:35;;;;;;;;;12.25;10.00;;;;;;;;5058581;27;48106;-79
2021/07/24 00:35:01;;;;;;;;;13.50;11.75;;;;;;;;5071904;28;46991;-78
2021/07/24 00:37:26;;;;;;;;;15.00;14.00;;;;;;;;5058821;28;46945;-78
2021/07/24 00:39:51;;;;;;;;;13.25;10.25;;;;;;;;5040786;28;46790;-81
2021/07/24 00:42:18;;;;;;;;;13.50;12.75;;;;;;;;5058826;28;46800;-81
2021/07/24 00:44:45;;;;;;;;;16.00;13.50;;;;;;;;5065737;28;46865;-81
2021/07/24 00:47:18;;;;;;;;;13.75;11.75;;;;;;;;5079051;28;47014;-80
2021/07/24 00:49:46;;;;;;;;;13.75;12.75;;;;;;;;5078924;28;47213;-80
2021/07/24 00:52:12;;;;;;;;;15.25;13.50;;;;;;;;5060455;28;48592;-81
2021/07/24 00:54:40;;;;;;;;;14.75;12.50;;;;;;;;5079235;28;47023;-81
2021/07/24 00:57:06;;;;;;;;;13.75;12.75;;;;;;;;5078950;28;46962;-81
2021/07/24 00:59:33;;;;;;;;;10.00;9.00;;;;;;;;5060724;28;47095;-81
2021/07/24 01:01:58;;;;;;;;;14.00;12.00;;;;;;;;5078768;28;48088;-81
2021/07/24 01:04:24;;;;;;;;;13.75;12.00;;;;;;;;5078910;28;46935;-81
2021/07/24 01:06:49;;;;;;;;;13.25;13.25;;;;;;;;5079011;28;46845;-78
2021/07/24 01:09:15;;;;;;;;;14.50;13.00;;;;;;;;5078795;28;47205;-78
2021/07/24 01:11:40;;;;;;;;;12.25;12.25;;;;;;;;5078169;28;46955;-78
2021/07/24 01:14:06;;;;;;;;;13.25;12.25;;;;;;;;5078644;28;46999;-78
2021/07/24 01:16:31;;;;;;;;;12.25;10.75;;;;;;;;5078171;28;46854;-78
2021/07/24 01:18:56;;;;;;;;;16.75;14.00;;;;;;;;5078845;28;47098;-78
2021/07/24 01:21:23;;;;;;;;;13.75;12.00;;;;;;;;5057835;28;48659;-78
2021/07/24 01:23:48;;;;;;;;;15.00;13.00;;;;;;;;5058061;28;46969;-78
2021/07/24 01:26:21;;;;;;;;;15.75;14.25;;;;;;;;5057956;28;47127;-78
2021/07/24 01:28:46;;;;;;;;;14.00;12.75;;;;;;;;5058128;28;47267;-78
2021/07/24 01:31:11;;;;;;;;;13.50;12.50;;;;;;;;5057804;28;46996;-78
2021/07/24 01:33:37;;;;;;;;;18.75;12.50;;;;;;;;5066625;27;47066;-78
2021/07/24 01:36:03;;;;;;;;;14.50;12.25;;;;;;;;5062659;28;47026;-79
2021/07/24 01:38:28;;;;;;;;;15.50;12.50;;;;;;;;5058214;28;46784;-79
2021/07/24 01:40:54;;;;;;;;;12.00;11.00;;;;;;;;5057604;28;46893;-79
2021/07/24 01:43:19;;;;;;;;;12.25;10.25;;;;;;;;5057557;28;46892;-79
2021/07/24 01:45:45;;;;;;;;;16.50;12.50;;;;;;;;5057742;28;46849;-79
2021/07/24 01:48:19;;;;;;;;;15.00;14.75;;;;;;;;5057615;28;47245;-79
2021/07/24 01:53:30;;;;;;;;;13.50;12.00;;;;;;;;5057596;28;46866;-78
2021/07/24 01:56:00;;;;;;;;;16.00;15.00;;;;;;;;5039140;28;46909;-78
2021/07/24 01:58:28;;;;;;;;;14.25;11.25;;;;;;;;5039381;28;46893;-79
2021/07/24 02:00:54;;;;;;;;;12.50;12.00;;;;;;;;5065177;28;48019;-79
2021/07/24 02:03:23;;;;;;;;;13.75;12.00;;;;;;;;5081213;28;46763;-79
2021/07/24 02:05:49;;;;;;;;;14.25;12.75;;;;;;;;5081453;28;47001;-78
2021/07/24 02:08:19;;;;;;;;;13.50;11.75;;;;;;;;5081460;28;47074;-78
2021/07/24 02:10:44;;;;;;;;;13.00;10.50;;;;;;;;5081065;28;47208;-78
2021/07/24 02:13:10;;;;;;;;;11.00;10.50;;;;;;;;5080740;28;46801;-78
2021/07/24 02:15:36;;;;;;;;;14.25;9.50;;;;;;;;5081440;28;46897;-79
2021/07/24 02:18:02;;;;;;;;;8.50;7.00;;;;;;;;5080966;28;46769;-80
2021/07/24 02:20:28;;;;;;;;;10.00;8.50;;;;;;;;5081045;28;47724;-79
2021/07/24 02:22:54;;;;;;;;;11.25;6.50;;;;;;;;5066416;28;46976;-79
2021/07/24 02:25:19;;;;;;;;;10.00;7.50;;;;;;;;5042445;28;46939;-79
2021/07/24 02:27:45;;;;;;;;;9.25;7.75;;;;;;;;5042527;28;47342;-79
2021/07/24 02:30:11;;;;;;;;;5.75;5.75;;;;;;;;5060848;28;47032;-80
2021/07/24 02:32:36;;;;;;;;;7.00;6.50;;;;;;;;5060642;27;46968;-80
2021/07/24 02:35:02;;;;;;;;;4.50;4.50;;;;;;;;5074025;28;47023;-79
2021/07/24 02:37:27;;;;;;;;;5.50;5.50;;;;;;;;5060865;28;46971;-79
2021/07/24 02:39:52;;;;;;;;;8.25;5.25;;;;;;;;5060656;28;47954;-80
2021/07/24 02:42:17;;;;;;;;;6.25;6.00;;;;;;;;5041944;28;47012;-80
2021/07/24 02:44:43;;;;;;;;;5.25;5.25;;;;;;;;5060502;28;47169;-80
2021/07/24 02:47:08;;;;;;;;;7.00;7.00;;;;;;;;5060451;28;47017;-80
2021/07/24 02:49:34;;;;;;;;;6.00;5.25;;;;;;;;5042231;28;48387;-79
2021/07/24 02:51:59;;;;;;;;;5.00;3.75;;;;;;;;5060346;28;46979;-79
2021/07/24 02:54:24;;;;;;;;;8.25;7.50;;;;;;;;5060471;28;47065;-79
2021/07/24 02:56:50;;;;;;;;;5.50;5.00;;;;;;;;5060446;28;47322;-80
2021/07/24 02:59:15;;;;;;;;;6.00;4.00;;;;;;;;5060036;28;46821;-80
2021/07/24 03:01:40;;;;;;;;;5.75;5.00;;;;;;;;5060261;28;46871;-80
2021/07/24 03:04:06;;;;;;;;;5.25;5.25;;;;;;;;5059938;28;46783;-80
2021/07/24 03:06:31;;;;;;;;;6.00;6.00;;;;;;;;5060358;28;47246;-80
2021/07/24 03:08:56;;;;;;;;;6.00;6.00;;;;;;;;5059932;28;47311;-80
2021/07/24 03:11:22;;;;;;;;;5.50;5.50;;;;;;;;5059652;28;46969;-80
2021/07/24 03:13:48;;;;;;;;;6.25;4.50;;;;;;;;5059873;28;46792;-80
2021/07/24 03:16:13;;;;;;;;;4.50;4.00;;;;;;;;5059998;28;46990;-80
2021/07/24 03:18:38;;;;;;;;;7.50;5.00;;;;;;;;5059901;28;46858;-80
2021/07/24 03:21:04;;;;;;;;;6.00;5.50;;;;;;;;5065860;28;46891;-80
2021/07/24 03:23:29;;;;;;;;;7.75;5.25;;;;;;;;5061783;28;46920;-80
2021/07/24 03:25:54;;;;;;;;;5.00;5.00;;;;;;;;5060054;28;47030;-80
2021/07/24 03:28:20;;;;;;;;;3.75;3.75;;;;;;;;5059554;28;46974;-80
2021/07/24 03:30:45;;;;;;;;;5.00;5.00;;;;;;;;5059940;28;47012;-79
2021/07/24 03:33:10;;;;;;;;;7.00;6.00;;;;;;;;5064739;27;46893;-79
2021/07/24 03:35:35;;;;;;;;;9.50;7.50;;;;;;;;5068442;28;46947;-79
2021/07/24 03:38:04;;;;;;;;;6.25;6.00;;;;;;;;5041218;28;48223;-79
2021/07/24 03:40:30;;;;;;;;;5.00;5.00;;;;;;;;5059730;28;46826;-79
2021/07/24 03:42:55;;;;;;;;;4.00;4.00;;;;;;;;5059440;28;46712;-79
2021/07/24 03:45:21;;;;;;;;;5.75;4.50;;;;;;;;5059658;28;47159;-79
2021/07/24 03:47:46;;;;;;;;;5.25;5.00;;;;;;;;5058870;28;47018;-79
2021/07/24 03:50:11;;;;;;;;;5.00;5.00;;;;;;;;5059345;28;46985;-79
2021/07/24 03:52:37;;;;;;;;;3.75;3.50;;;;;;;;5059321;28;46823;-79
2021/07/24 03:55:02;;;;;;;;;7.00;5.50;;;;;;;;5059554;28;46798;-79
2021/07/24 03:57:27;;;;;;;;;7.00;5.00;;;;;;;;5040738;28;48440;-79
2021/07/24 03:59:52;;;;;;;;;5.75;5.50;;;;;;;;5059369;28;46969;-79
2021/07/24 04:02:23;;;;;;;;;6.00;5.00;;;;;;;;5059215;28;47188;-79
2021/07/24 04:04:52;;;;;;;;;5.00;3.25;;;;;;;;5059486;28;46993;-79
2021/07/24 04:07:17;;;;;;;;;6.50;6.00;;;;;;;;5059092;28;46809;-79
2021/07/24 04:09:42;;;;;;;;;7.25;6.00;;;;;;;;5059030;28;46864;-80
2021/07/24 04:12:09;;;;;;;;;5.00;4.25;;;;;;;;5058733;28;47077;-80
2021/07/24 04:14:35;;;;;;;;;5.50;5.50;;;;;;;;5059191;28;47027;-80
2021/07/24 04:17:00;;;;;;;;;6.25;6.25;;;;;;;;5058768;28;46947;-79
2021/07/24 04:19:25;;;;;;;;;5.50;5.50;;;;;;;;5058910;28;46985;-79
2021/07/24 04:21:50;;;;;;;;;6.75;5.25;;;;;;;;5065470;28;47053;-79
2021/07/24 04:24:18;;;;;;;;;8.75;6.00;;;;;;;;5058476;28;46935;-80
2021/07/24 04:26:43;;;;;;;;;5.25;5.25;;;;;;;;5058745;28;47872;-80
2021/07/24 04:29:09;;;;;;;;;5.50;5.25;;;;;;;;5058588;28;46933;-80
2021/07/24 04:31:36;;;;;;;;;6.25;5.25;;;;;;;;5058526;28;46864;-81
2021/07/24 04:34:01;;;;;;;;;6.25;5.25;;;;;;;;5071226;27;46869;-81
2021/07/24 04:36:26;;;;;;;;;4.75;4.50;;;;;;;;5059843;28;46826;-81
2021/07/24 04:38:52;;;;;;;;;5.00;3.75;;;;;;;;5040390;28;46869;-81
2021/07/24 04:41:18;;;;;;;;;7.00;6.00;;;;;;;;5058385;28;47080;-81
2021/07/24 04:43:43;;;;;;;;;7.25;5.75;;;;;;;;5058860;28;46766;-81
2021/07/24 04:46:09;;;;;;;;;7.25;5.75;;;;;;;;5058208;28;48175;-80
2021/07/24 04:48:34;;;;;;;;;6.00;6.00;;;;;;;;5058663;28;46976;-80
2021/07/24 04:51:00;;;;;;;;;5.50;4.00;;;;;;;;5058472;28;46993;-80
2021/07/24 04:53:26;;;;;;;;;6.75;6.75;;;;;;;;5040509;28;47369;-81
2021/07/24 04:55:52;;;;;;;;;4.50;4.50;;;;;;;;5058278;28;47175;-81
2021/07/24 04:58:18;;;;;;;;;7.50;7.25;;;;;;;;5040034;28;46826;-81
2021/07/24 05:00:44;;;;;;;;;9.50;8.25;;;;;;;;5058294;28;46823;-81
2021/07/24 05:03:13;;;;;;;;;8.00;7.25;;;;;;;;5058379;28;46969;-80
2021/07/24 05:05:39;;;;;;;;;9.50;7.25;;;;;;;;5040251;28;47224;-80
2021/07/24 05:08:06;;;;;;;;;6.00;4.75;;;;;;;;5058379;28;46941;-79
2021/07/24 05:10:31;;;;;;;;;8.25;5.25;;;;;;;;5065077;28;46951;-79
2021/07/24 05:12:57;;;;;;;;;9.50;6.25;;;;;;;;5078414;28;46913;-80
2021/07/24 05:15:22;;;;;;;;;7.75;7.00;;;;;;;;5078501;28;47959;-80
2021/07/24 05:17:48;;;;;;;;;6.50;5.50;;;;;;;;5078203;28;47031;-79
2021/07/24 05:20:13;;;;;;;;;7.75;7.25;;;;;;;;5078352;28;47156;-79
2021/07/24 05:22:38;;;;;;;;;10.50;6.00;;;;;;;;5066041;28;47317;-79
2021/07/24 05:25:04;;;;;;;;;8.50;7.25;;;;;;;;5057740;28;47767;-79
2021/07/24 05:27:29;;;;;;;;;7.50;7.00;;;;;;;;5058017;28;46834;-79
2021/07/24 05:29:55;;;;;;;;;6.00;6.00;;;;;;;;5057912;28;47069;-79
2021/07/24 05:32:20;;;;;;;;;6.50;4.50;;;;;;;;5058073;28;46897;-79
2021/07/24 05:34:45;;;;;;;;;6.50;6.50;;;;;;;;5053006;28;49490;-79
2021/07/24 05:37:10;;;;;;;;;7.25;6.00;;;;;;;;5057837;28;46897;-80
2021/07/24 05:39:36;;;;;;;;;6.25;6.00;;;;;;;;5057794;28;46854;-80
2021/07/24 05:42:01;;;;;;;;;11.00;7.50;;;;;;;;5058067;28;46956;-80
2021/07/24 05:44:27;;;;;;;;;9.00;7.25;;;;;;;;5039192;28;47205;-80
2021/07/24 05:46:52;;;;;;;;;8.50;8.00;;;;;;;;5057466;28;46925;-80
2021/07/24 05:49:17;;;;;;;;;7.75;6.75;;;;;;;;5057487;28;46764;-80
2021/07/24 05:51:43;;;;;;;;;8.25;7.50;;;;;;;;5057931;28;46789;-80
2021/07/24 05:54:10;;;;;;;;;6.50;6.00;;;;;;;;5057426;28;47834;-80
2021/07/24 05:56:36;;;;;;;;;7.00;5.50;;;;;;;;5057575;28;47015;-80
2021/07/24 05:59:01;;;;;;;;;8.75;7.00;;;;;;;;5057436;28;46944;-80
2021/07/24 06:01:27;;;;;;;;;3.00;3.00;;;;;;;;5039345;28;47150;-80
2021/07/24 06:03:52;;;;;;;;;7.25;6.50;;;;;;;;5057418;28;46960;-80
2021/07/24 06:06:17;;;;;;;;;9.00;7.00;;;;;;;;5057501;28;46989;-80
2021/07/24 06:08:43;;;;;;;;;8.00;6.50;;;;;;;;5057505;28;46969;-80
2021/07/24 06:11:08;;;;;;;;;8.75;7.00;;;;;;;;5039386;28;46964;-80
2021/07/24 06:13:33;;;;;;;;;7.00;6.00;;;;;;;;5038933;28;48591;-80
2021/07/24 06:15:59;;;;;;;;;4.25;4.25;;;;;;;;5057179;28;46823;-80
2021/07/24 06:18:25;;;;;;;;;8.25;6.25;;;;;;;;5039158;28;46916;-80
2021/07/24 06:20:50;;;;;;;;;10.75;8.50;;;;;;;;5061621;28;47227;-79
2021/07/24 06:23:16;;;;;;;;;8.50;7.00;;;;;;;;5059686;28;47918;-79
2021/07/24 06:25:42;;;;;;;;;5.50;5.50;;;;;;;;5057033;28;46902;-80
2021/07/24 06:28:07;;;;;;;;;9.00;7.00;;;;;;;;5038753;28;47085;-80
2021/07/24 06:30:33;;;;;;;;;7.50;7.25;;;;;;;;5057366;28;46944;-80
2021/07/24 06:32:58;;;;;;;;;6.00;6.00;;;;;;;;5060142;27;47898;-79
2021/07/24 06:35:24;;;;;;;;;7.00;6.75;;;;;;;;5067331;28;47103;-79
2021/07/24 06:37:50;;;;;;;;;5.25;5.25;;;;;;;;5057019;28;47033;-79
2021/07/24 06:40:16;;;;;;;;;6.00;5.25;;;;;;;;5039079;28;46940;-80
2021/07/24 06:42:41;;;;;;;;;5.50;5.50;;;;;;;;5056781;28;48015;-80
2021/07/24 06:45:06;;;;;;;;;5.00;5.00;;;;;;;;5056984;28;47020;-80
2021/07/24 06:47:32;;;;;;;;;6.75;5.00;;;;;;;;5058590;28;46929;-80
2021/07/24 06:49:57;;;;;;;;;8.50;7.50;;;;;;;;5042550;28;46873;-80
2021/07/24 06:52:22;;;;;;;;;7.25;7.25;;;;;;;;5060187;28;47871;-79
2021/07/24 06:54:48;;;;;;;;;5.00;4.00;;;;;;;;5060524;28;47007;-80
2021/07/24 06:57:13;;;;;;;;;6.00;5.75;;;;;;;;5060116;28;47013;-79
2021/07/24 06:59:39;;;;;;;;;7.00;6.00;;;;;;;;5060677;28;46992;-80
2021/07/24 07:02:05;;;;;;;;;5.00;5.00;;;;;;;;5059896;28;46932;-80
2021/07/24 07:04:30;;;;;;;;;6.50;5.00;;;;;;;;5060238;28;46929;-80
2021/07/24 07:06:55;;;;;;;;;7.00;6.00;;;;;;;;5060374;28;46892;-79
2021/07/24 07:09:21;;;;;;;;;7.50;7.50;;;;;;;;5060539;28;46716;-80
2021/07/24 07:11:46;;;;;;;;;6.00;6.00;;;;;;;;5059622;28;47812;-80
2021/07/24 07:14:11;;;;;;;;;5.00;3.75;;;;;;;;5060098;28;46817;-80
2021/07/24 07:16:37;;;;;;;;;8.50;6.50;;;;;;;;5059612;28;46881;-80
2021/07/24 07:19:04;;;;;;;;;4.75;4.00;;;;;;;;5060397;28;47052;-80
2021/07/24 07:21:29;;;;;;;;;7.75;5.00;;;;;;;;5067429;28;47857;-80
2021/07/24 07:23:55;;;;;;;;;4.50;4.00;;;;;;;;5059988;28;46887;-80
2021/07/24 07:26:24;;;;;;;;;7.00;6.00;;;;;;;;5059943;28;47059;-80
2021/07/24 07:28:49;;;;;;;;;5.00;4.50;;;;;;;;5060186;28;47029;-80
2021/07/24 07:31:14;;;;;;;;;4.00;3.75;;;;;;;;5059467;28;47057;-80
2021/07/24 07:33:41;;;;;;;;;5.25;4.75;;;;;;;;5069252;27;46939;-80
2021/07/24 07:36:06;;;;;;;;;6.50;5.75;;;;;;;;5063563;28;46785;-80
2021/07/24 07:38:31;;;;;;;;;5.50;5.00;;;;;;;;5059883;28;46820;-80
2021/07/24 07:40:56;;;;;;;;;6.75;6.00;;;;;;;;5059568;28;47815;-80
2021/07/24 07:43:22;;;;;;;;;4.00;3.00;;;;;;;;5059515;28;46781;-80
2021/07/24 07:45:47;;;;;;;;;6.25;5.50;;;;;;;;5059490;28;46775;-80
2021/07/24 07:48:12;;;;;;;;;4.75;4.75;;;;;;;;5059679;28;46774;-80
2021/07/24 07:50:38;;;;;;;;;4.75;3.75;;;;;;;;5059217;28;47682;-81
2021/07/24 07:53:04;;;;;;;;;4.75;3.50;;;;;;;;5059596;28;46850;-80
2021/07/24 07:55:29;;;;;;;;;6.00;5.50;;;;;;;;5059221;28;47135;-80
2021/07/24 07:57:55;;;;;;;;;2.50;2.50;;;;;;;;5058670;28;46850;-80
2021/07/24 08:00:20;;;;;;;;;6.50;4.50;;;;;;;;5058882;28;47121;-80
2021/07/24 08:02:55;;;;;;;;;9.00;6.50;;;;;;;;5059199;28;46993;-79
2021/07/24 08:05:21;;;;;;;;;5.75;4.25;;;;;;;;5059064;28;47071;-80
2021/07/24 08:07:46;;;;;;;;;4.00;3.00;;;;;;;;5059381;28;46973;-80
2021/07/24 08:10:11;;;;;;;;;6.00;4.00;;;;;;;;5040661;28;46965;-79
2021/07/24 08:12:37;;;;;;;;;5.00;3.25;;;;;;;;5058808;28;46865;-80
2021/07/24 08:15:02;;;;;;;;;4.50;4.50;;;;;;;;5058850;28;47020;-79
2021/07/24 08:17:28;;;;;;;;;6.50;5.75;;;;;;;;5058970;28;47353;-80
2021/07/24 08:19:53;;;;;;;;;3.25;3.25;;;;;;;;5058904;28;46988;-80
2021/07/24 08:22:20;;;;;;;;;4.25;4.00;;;;;;;;5065274;28;47106;-80
2021/07/24 08:24:45;;;;;;;;;5.50;4.50;;;;;;;;5058944;28;46786;-80
2021/07/24 08:27:10;;;;;;;;;5.00;5.00;;;;;;;;5059064;28;46987;-80
2021/07/24 08:29:35;;;;;;;;;3.50;3.50;;;;;;;;5058639;28;46972;-80
2021/07/24 08:32:01;;;;;;;;;7.75;6.00;;;;;;;;5058756;28;46840;-79
2021/07/24 08:34:26;;;;;;;;;4.50;2.75;;;;;;;;5071987;27;46888;-80
2021/07/24 08:36:51;;;;;;;;;4.25;2.50;;;;;;;;5059141;28;46786;-79
2021/07/24 08:39:17;;;;;;;;;4.00;4.00;;;;;;;;5058465;28;47043;-79
2021/07/24 08:41:42;;;;;;;;;4.00;4.00;;;;;;;;5058956;28;46793;-80
2021/07/24 08:44:11;;;;;;;;;4.75;3.25;;;;;;;;5058385;28;47122;-80
2021/07/24 08:46:36;;;;;;;;;6.25;4.00;;;;;;;;5058771;28;46947;-79
2021/07/24 08:49:03;;;;;;;;;6.00;5.75;;;;;;;;5058421;28;47133;-79
2021/07/24 08:51:30;;;;;;;;;5.25;3.50;;;;;;;;5040253;28;47904;-79
2021/07/24 08:53:56;;;;;;;;;4.50;4.00;;;;;;;;5058493;28;46968;-79
2021/07/24 08:56:24;;;;;;;;;3.50;3.50;;;;;;;;5040423;28;47177;-80
2021/07/24 08:58:55;;;;;;;;;3.25;3.25;;;;;;;;5058157;28;46865;-79
2021/07/24 09:01:21;;;;;;;;;3.00;3.00;;;;;;;;5058234;28;46878;-79
2021/07/24 09:03:47;;;;;;;;;5.00;3.75;;;;;;;;5058359;28;46748;-79
2021/07/24 09:06:22;;;;;;;;;4.00;2.75;;;;;;;;5058506;28;47008;-79
2021/07/24 09:08:49;;;;;;;;;4.00;4.00;;;;;;;;5039793;28;47964;-79
2021/07/24 09:11:14;;;;;;;;;3.25;1.25;;;;;;;;5057485;28;47634;-81
2021/07/24 09:13:39;;;;;;;;;2.00;2.00;;;;;;;;5057994;28;47039;-79
2021/07/24 09:16:06;;;;;;;;;4.00;3.00;;;;;;;;5058003;28;47255;-80
2021/07/24 09:18:33;;;;;;;;;3.00;3.00;;;;;;;;5039792;28;49349;-79
2021/07/24 09:20:58;;;;;;;;;4.00;4.00;;;;;;;;5063534;28;47153;-79
2021/07/24 09:23:25;;;;;;;;;5.75;4.25;;;;;;;;5060236;28;46971;-79
2021/07/24 09:25:51;;;;;;;;;5.50;4.25;;;;;;;;5040016;28;47068;-79
2021/07/24 09:28:16;;;;;;;;;3.00;3.00;;;;;;;;5057658;28;46982;-79
2021/07/24 09:30:41;;;;;;;;;4.00;4.00;;;;;;;;5058031;28;46795;-79
2021/07/24 09:33:17;;;;;;;;;2.00;2.00;;;;;;;;5062312;28;46818;-80
2021/07/24 09:35:43;;;;;;;;;4.50;4.25;;;;;;;;5065794;28;47197;-79
2021/07/24 09:38:12;;;;;;;;;4.00;3.00;;;;;;;;5057648;28;46864;-79
2021/07/24 09:40:38;;;;;;;;;3.00;3.00;;;;;;;;5057874;28;47101;-79
2021/07/24 09:43:04;;;;;;;;;3.00;3.00;;;;;;;;5057658;28;46970;-80
2021/07/24 09:45:30;;;;;;;;;5.50;5.00;;;;;;;;5057880;28;47304;-80
2021/07/24 09:47:55;;;;;;;;;5.50;4.75;;;;;;;;5057178;28;47786;-80
2021/07/24 09:50:21;;;;;;;;;2.25;2.00;;;;;;;;5057563;28;46830;-80
2021/07/24 09:52:50;;;;;;;;;2.00;2.00;;;;;;;;5057655;28;47237;-80
2021/07/24 09:55:16;;;;;;;;;3.00;3.00;;;;;;;;5057902;28;47309;-80
2021/07/24 09:57:43;;;;;;;;;4.00;2.75;;;;;;;;5057291;28;48111;-80
2021/07/24 10:00:21;;;;;;;;;5.00;4.00;;;;;;;;5057645;28;46973;-81
2021/07/24 10:02:47;;;;;;;;;4.00;4.00;;;;;;;;5066152;28;46900;-79
2021/07/24 10:05:13;;;;;;;;;3.50;3.50;;;;;;;;5077905;28;47212;-81
2021/07/24 10:07:42;;;;;;;;;2.75;2.50;;;;;;;;5077894;28;46920;-80
2021/07/24 10:10:07;;;;;;;;;4.00;4.00;;;;;;;;5077575;28;46999;-80
2021/07/24 10:12:34;;;;;;;;;5.00;4.00;;;;;;;;5077734;28;46880;-80
2021/07/24 10:14:59;;;;;;;;;3.25;3.25;;;;;;;;5077932;28;46805;-80
2021/07/24 10:17:25;;;;;;;;;4.75;4.00;;;;;;;;5059046;28;47884;-80
2021/07/24 10:19:51;;;;;;;;;4.75;4.00;;;;;;;;5077563;28;46825;-80
2021/07/24 10:22:18;;;;;;;;;6.00;5.00;;;;;;;;5070677;28;46853;-80
2021/07/24 10:24:43;;;;;;;;;3.00;3.00;;;;;;;;5061010;28;46876;-81
2021/07/24 10:27:18;;;;;;;;;5.00;3.75;;;;;;;;5060974;28;47061;-80
2021/07/24 10:30:03;;;;;;;;;3.00;3.00;;;;;;;;5042429;28;47113;-81
2021/07/24 10:32:29;;;;;;;;;2.50;2.00;;;;;;;;5042486;28;46966;-81
2021/07/24 10:34:55;;;;;;;;;3.00;2.75;;;;;;;;5074575;27;46972;-81
2021/07/24 10:37:34;;;;;;;;;2.50;2.50;;;;;;;;5060969;28;48026;-81
2021/07/24 10:40:14;;;;;;;;;4.75;3.00;;;;;;;;5068483;28;46938;-81
2021/07/24 10:42:40;;;;;;;;;2.50;2.50;;;;;;;;5080748;28;46874;-81
2021/07/24 10:45:05;;;;;;;;;3.00;3.00;;;;;;;;5081135;28;46853;-80
2021/07/24 10:47:31;;;;;;;;;4.00;3.00;;;;;;;;5080495;28;48141;-81
2021/07/24 10:49:57;;;;;;;;;4.25;3.00;;;;;;;;5080987;28;46908;-80
2021/07/24 10:52:22;;;;;;;;;4.00;4.00;;;;;;;;5080829;28;47081;-81
2021/07/24 10:54:59;;;;;;;;;3.00;3.00;;;;;;;;5081026;28;46904;-81
2021/07/24 10:57:43;;;;;;;;;2.25;2.00;;;;;;;;5080246;28;47466;-81
2021/07/24 11:00:30;;;;;;;;;3.75;2.75;;;;;;;;5080534;28;47006;-82
2021/07/24 11:02:55;;;;;;;;;3.00;3.00;;;;;;;;5055144;28;47200;-82
2021/07/24 11:05:24;;;;;;;;;4.25;3.25;;;;;;;;5080779;28;46815;-81
2021/07/24 11:07:49;;;;;;;;;2.25;2.25;;;;;;;;5080600;28;47263;-81
2021/07/24 11:10:15;;;;;;;;;3.25;2.00;;;;;;;;5080380;28;46947;-81
2021/07/24 11:12:41;;;;;;;;;4.00;3.00;;;;;;;;5080156;28;46990;-81
2021/07/24 11:15:07;;;;;;;;;2.50;1.75;;;;;;;;5080395;28;46904;-80
2021/07/24 11:17:33;;;;;;;;;2.00;2.00;;;;;;;;5080101;28;48055;-81
2021/07/24 11:20:01;;;;;;;;;4.00;2.50;;;;;;;;5080137;28;47019;-81
2021/07/24 11:22:29;;;;;;;;;3.00;3.00;;;;;;;;5070092;28;46762;-81
2021/07/24 11:24:55;;;;;;;;;3.00;2.75;;;;;;;;5059867;28;47095;-81
2021/07/24 11:27:26;;;;;;;;;5.00;4.00;;;;;;;;5041423;28;47374;-80
2021/07/24 11:30:04;;;;;;;;;2.00;2.00;;;;;;;;5059570;28;46986;-81
2021/07/24 11:32:31;;;;;;;;;2.00;2.00;;;;;;;;5041402;28;47057;-81
2021/07/24 11:34:59;;;;;;;;;4.50;2.00;;;;;;;;5073551;27;47256;-82
2021/07/24 11:37:38;;;;;;;;;3.00;3.00;;;;;;;;5041564;28;49360;-81
2021/07/24 11:40:05;;;;;;;;;1.00;1.00;;;;;;;;5068303;28;47150;-81
2021/07/24 11:42:30;;;;;;;;;1.75;1.75;;;;;;;;5080006;28;47002;-81
2021/07/24 11:44:55;;;;;;;;;3.00;2.00;;;;;;;;5061880;28;46962;-82
2021/07/24 11:47:21;;;;;;;;;2.00;2.00;;;;;;;;5060980;28;47173;-81
2021/07/24 11:49:46;;;;;;;;;2.00;2.00;;;;;;;;5061586;28;46999;-81
2021/07/24 11:52:11;;;;;;;;;3.75;2.50;;;;;;;;5079848;28;46854;-82
2021/07/24 11:54:37;;;;;;;;;2.00;2.00;;;;;;;;5079945;28;46921;-82
2021/07/24 11:57:03;;;;;;;;;2.50;2.25;;;;;;;;5079526;28;47607;-82
2021/07/24 11:59:30;;;;;;;;;1.75;1.75;;;;;;;;5079577;28;46998;-81
2021/07/24 12:01:56;;;;;;;;;1.00;1.00;;;;;;;;5079446;28;46806;-81
2021/07/24 12:04:21;;;;;;;;;2.00;2.00;;;;;;;;5080081;28;47320;-80
2021/07/24 12:07:05;;;;;;;;;2.50;2.00;;;;;;;;5079440;28;46908;-80
2021/07/24 12:09:30;;;;;;;;;5.00;3.00;;;;;;;;5079578;28;47045;-80
2021/07/24 12:11:58;;;;;;;;;2.00;1.25;;;;;;;;5079240;28;46845;-80
2021/07/24 12:14:24;;;;;;;;;2.00;2.00;;;;;;;;5079556;28;47104;-80
2021/07/24 12:17:03;;;;;;;;;2.00;2.00;;;;;;;;5079037;28;47999;-80
2021/07/24 12:19:34;;;;;;;;;2.00;2.00;;;;;;;;5079295;28;47036;-80
2021/07/24 12:22:10;;;;;;;;;3.50;3.00;;;;;;;;5072137;28;46951;-80
2021/07/24 12:24:35;;;;;;;;;4.50;2.00;;;;;;;;5058978;28;47024;-78
2021/07/24 12:27:04;;;;;;;;;2.00;1.50;;;;;;;;5058821;28;48224;-80
2021/07/24 12:29:30;;;;;;;;;2.25;1.50;;;;;;;;5058807;28;47079;-79
2021/07/24 12:31:55;;;;;;;;;3.00;1.50;;;;;;;;5058883;28;46841;-79
2021/07/24 12:34:21;;;;;;;;;1.00;1.00;;;;;;;;5072918;27;46785;-80
2021/07/24 12:36:50;;;;;;;;;2.00;1.50;;;;;;;;5058988;28;47147;-80
2021/07/24 12:39:16;;;;;;;;;2.00;2.00;;;;;;;;5040726;28;47255;-80
2021/07/24 12:41:42;;;;;;;;;4.00;2.50;;;;;;;;5040872;28;47195;-80
2021/07/24 12:44:08;;;;;;;;;2.00;2.00;;;;;;;;5058130;28;46870;-80
2021/07/24 12:46:37;;;;;;;;;1.75;1.75;;;;;;;;5058412;28;48018;-80
2021/07/24 12:49:04;;;;;;;;;2.50;2.50;;;;;;;;5058596;28;46750;-80
2021/07/24 12:51:40;;;;;;;;;2.75;2.00;;;;;;;;5040547;28;46940;-80
2021/07/24 12:54:16;;;;;;;;;4.00;1.25;;;;;;;;5058674;28;47011;-80
2021/07/24 12:56:45;;;;;;;;;1.00;1.00;;;;;;;;5058537;28;47924;-80
2021/07/24 12:59:11;;;;;;;;;1.00;1.00;;;;;;;;5058226;28;46925;-80
2021/07/24 13:01:42;;;;;;;;;1.25;1.00;;;;;;;;5058358;28;46779;-80
2021/07/24 13:04:07;;;;;;;;;2.25;2.25;;;;;;;;5065800;28;46882;-79
2021/07/24 13:06:33;;;;;;;;;0.25;0.25;;;;;;;;5060290;28;47273;-80
2021/07/24 13:08:59;;;;;;;;;2.50;1.00;;;;;;;;5078856;28;46876;-80
2021/07/24 13:11:24;;;;;;;;;1.00;1.00;;;;;;;;5060079;28;47033;-80
2021/07/24 13:13:50;;;;;;;;;2.00;2.00;;;;;;;;5060086;28;46879;-80
2021/07/24 13:16:17;;;;;;;;;1.00;1.00;;;;;;;;5060014;28;47227;-80
2021/07/24 13:18:42;;;;;;;;;1.00;1.00;;;;;;;;5078658;28;46940;-81
2021/07/24 13:21:08;;;;;;;;;2.25;1.00;;;;;;;;5078469;28;46775;-81
2021/07/24 13:23:33;;;;;;;;;2.00;2.00;;;;;;;;5058296;28;47078;-81
2021/07/24 13:28:30;;;;;;;;;1.50;1.50;;;;;;;;5057878;28;47034;-80
2021/07/24 13:30:56;;;;;;;;;2.75;2.00;;;;;;;;5039570;28;46866;-80
2021/07/24 13:33:21;;;;;;;;;2.25;1.25;;;;;;;;5064957;28;47354;-80
2021/07/24 13:35:47;;;;;;;;;5.00;2.00;;;;;;;;5064742;28;46866;-80
2021/07/24 13:38:13;;;;;;;;;2.00;2.00;;;;;;;;5057872;28;46949;-79
2021/07/24 13:40:38;;;;;;;;;2.00;2.00;;;;;;;;5057943;28;47127;-80
2021/07/24 13:43:04;;;;;;;;;2.25;2.25;;;;;;;;5057930;28;47386;-80
2021/07/24 13:45:29;;;;;;;;;2.00;2.00;;;;;;;;5057669;28;47381;-80
2021/07/24 13:47:58;;;;;;;;;2.00;2.00;;;;;;;;5057343;28;46976;-80
2021/07/24 13:50:23;;;;;;;;;2.75;2.75;;;;;;;;5057931;28;46922;-80
2021/07/24 13:52:49;;;;;;;;;2.25;1.25;;;;;;;;5057894;28;47330;-81
2021/07/24 13:55:14;;;;;;;;;2.50;2.00;;;;;;;;5057652;28;46874;-81
2021/07/24 13:57:39;;;;;;;;;1.50;1.50;;;;;;;;5056261;28;46854;-80
2021/07/24 14:00:06;;;;;;;;;2.00;2.00;;;;;;;;5057770;28;46799;-81
2021/07/24 14:02:32;;;;;;;;;2.00;2.00;;;;;;;;5057436;28;46854;-80
2021/07/24 14:04:57;;;;;;;;;3.00;3.00;;;;;;;;5057721;28;47863;-80
2021/07/24 14:07:23;;;;;;;;;3.25;3.00;;;;;;;;5057332;28;46972;-80
2021/07/24 14:09:48;;;;;;;;;2.00;2.00;;;;;;;;5057521;28;46861;-80
2021/07/24 14:12:13;;;;;;;;;2.00;2.00;;;;;;;;5057170;28;46786;-80
2021/07/24 14:14:39;;;;;;;;;2.75;2.75;;;;;;;;5057448;28;47921;-80
2021/07/24 14:17:04;;;;;;;;;3.50;2.00;;;;;;;;5057035;28;46993;-80
2021/07/24 14:19:29;;;;;;;;;2.25;2.25;;;;;;;;5039311;28;47004;-80
2021/07/24 14:21:55;;;;;;;;;1.75;1.75;;;;;;;;5065549;28;46985;-80
2021/07/24 14:24:20;;;;;;;;;2.75;1.75;;;;;;;;5057219;28;46940;-81
2021/07/24 14:26:46;;;;;;;;;4.25;3.00;;;;;;;;5057100;28;47127;-80
2021/07/24 14:29:11;;;;;;;;;2.00;2.00;;;;;;;;5057248;28;46892;-80
2021/07/24 14:31:37;;;;;;;;;2.75;2.25;;;;;;;;5056960;28;46985;-80
2021/07/24 14:34:02;;;;;;;;;4.75;3.00;;;;;;;;5051400;28;47197;-80
2021/07/24 14:36:27;;;;;;;;;2.75;2.00;;;;;;;;5058041;28;46948;-80
2021/07/24 14:38:53;;;;;;;;;3.50;3.00;;;;;;;;5057450;28;46980;-80